createdAt,value
2023-02-07T00:01:20.248Z,8.90
2023-02-07T00:03:48.926Z,9.00
2023-02-07T00:06:19.436Z,9.40
2023-02-07T00:08:47.818Z,9.40
2023-02-07T00:11:19.919Z,9.50
2023-02-07T00:13:51.817Z,9.70
2023-02-07T00:16:20.896Z,9.90
2023-02-07T00:18:49.537Z,9.90
2023-02-07T00:21:19.432Z,10.00
2023-02-07T00:23:48.327Z,10.10
2023-02-07T00:26:17.223Z,10.10
2023-02-07T00:28:46.867Z,10.00
2023-02-07T00:31:19.005Z,9.70
2023-02-07T00:33:48.863Z,9.30
2023-02-07T00:36:20.010Z,9.60
2023-02-07T00:38:48.687Z,9.40
2023-02-07T00:41:18.556Z,8.40
2023-02-07T00:43:48.451Z,8.60
2023-02-07T00:46:18.242Z,8.90
2023-02-07T00:48:46.535Z,8.80
2023-02-07T00:51:15.215Z,8.50
2023-02-07T00:53:44.247Z,8.60
2023-02-07T00:56:14.351Z,9.00
2023-02-07T00:58:42.255Z,9.00
2023-02-07T01:01:10.586Z,9.20
2023-02-07T01:03:40.182Z,9.40
2023-02-07T01:06:09.105Z,9.50
2023-02-07T01:08:37.304Z,9.50
2023-02-07T01:11:08.659Z,9.50
2023-02-07T01:13:41.167Z,9.50
2023-02-07T01:16:09.177Z,9.50
2023-02-07T01:18:37.191Z,8.70
2023-02-07T01:21:16.571Z,8.40
2023-02-07T01:23:44.609Z,8.90
2023-02-07T01:26:12.648Z,8.60
2023-02-07T01:28:40.766Z,8.50
2023-02-07T01:31:09.766Z,8.70
2023-02-07T01:33:38.642Z,9.00
2023-02-07T01:36:07.976Z,9.30
2023-02-07T01:38:37.408Z,9.00
2023-02-07T01:41:07.784Z,9.30
2023-02-07T01:43:36.423Z,9.30
2023-02-07T01:46:04.389Z,9.30
2023-02-07T01:48:37.685Z,9.40
2023-02-07T01:51:08.747Z,9.40
2023-02-07T01:53:39.408Z,9.30
2023-02-07T01:56:29.488Z,9.00
2023-02-07T01:59:01.530Z,9.10
2023-02-07T02:01:29.778Z,8.60
2023-02-07T02:03:58.265Z,8.40
2023-02-07T02:06:30.164Z,8.60
2023-02-07T02:09:01.581Z,9.00
2023-02-07T02:11:45.146Z,8.80
2023-02-07T02:14:27.627Z,7.70
2023-02-07T02:17:05.295Z,7.50
2023-02-07T02:19:53.732Z,7.70
2023-02-07T02:22:57.419Z,7.00
2023-02-07T02:25:57.676Z,7.20
2023-02-07T02:28:54.486Z,7.10
2023-02-07T02:31:39.219Z,6.20
2023-02-07T02:34:13.689Z,7.40
2023-02-07T02:36:50.591Z,7.50
2023-02-07T02:39:24.489Z,8.30
2023-02-07T02:42:00.292Z,7.90
2023-02-07T02:44:36.548Z,8.30
2023-02-07T02:47:05.541Z,8.50
2023-02-07T02:49:36.866Z,8.50
2023-02-07T02:52:05.058Z,8.60
2023-02-07T02:54:35.072Z,8.50
2023-02-07T02:57:37.941Z,7.70
2023-02-07T03:00:31.995Z,7.50
2023-02-07T03:03:13.028Z,7.90
2023-02-07T03:05:52.156Z,8.30
2023-02-07T03:08:31.872Z,8.00
2023-02-07T03:11:08.720Z,7.60
2023-02-07T03:13:49.886Z,8.30
2023-02-07T03:16:50.024Z,8.60
2023-02-07T03:19:26.360Z,9.20
2023-02-07T03:21:59.641Z,9.30
2023-02-07T03:24:31.777Z,9.10
2023-02-07T03:27:02.276Z,9.40
2023-02-07T03:29:34.182Z,9.60
2023-02-07T03:32:05.266Z,9.60
2023-02-07T03:34:39.426Z,9.20
2023-02-07T03:37:16.007Z,9.10
2023-02-07T03:39:44.115Z,9.10
2023-02-07T03:42:18.302Z,8.10
2023-02-07T03:44:48.446Z,7.70
2023-02-07T03:47:18.174Z,7.40
2023-02-07T03:49:46.216Z,7.30
2023-02-07T03:52:15.470Z,7.10
2023-02-07T03:54:43.388Z,6.50
2023-02-07T03:57:11.393Z,6.40
2023-02-07T03:59:39.471Z,6.30
2023-02-07T04:02:07.449Z,6.30
2023-02-07T04:04:35.663Z,6.20
2023-02-07T04:07:03.585Z,5.80
2023-02-07T04:09:33.070Z,5.70
2023-02-07T04:12:01.016Z,5.20
2023-02-07T04:14:29.104Z,5.70
2023-02-07T04:16:57.078Z,6.20
2023-02-07T04:19:25.014Z,6.30
2023-02-07T04:21:53.014Z,6.80
2023-02-07T04:24:20.918Z,7.00
2023-02-07T04:26:50.191Z,6.90
2023-02-07T04:29:18.327Z,6.90
2023-02-07T04:31:46.284Z,7.60
2023-02-07T04:34:14.225Z,8.00
2023-02-07T04:36:42.180Z,7.50
2023-02-07T04:39:10.071Z,7.50
2023-02-07T04:41:38.070Z,7.50
2023-02-07T04:44:07.387Z,7.50
2023-02-07T04:46:35.291Z,7.50
2023-02-07T04:49:04.095Z,7.90
2023-02-07T04:51:32.664Z,8.30
2023-02-07T04:54:00.614Z,8.50
2023-02-07T04:56:28.568Z,8.60
2023-02-07T04:58:56.514Z,8.80
2023-02-07T05:01:25.849Z,8.90
2023-02-07T05:03:53.782Z,9.10
2023-02-07T05:06:21.723Z,9.00
2023-02-07T05:08:49.773Z,8.70
2023-02-07T05:11:18.486Z,9.10
2023-02-07T05:13:46.464Z,9.20
2023-02-07T05:16:14.478Z,9.20
2023-02-07T05:18:43.764Z,9.00
2023-02-07T05:21:12.308Z,8.80
2023-02-07T05:23:40.212Z,8.20
2023-02-07T05:26:08.502Z,7.20
2023-02-07T05:28:36.405Z,7.30
2023-02-07T05:31:04.463Z,7.90
2023-02-07T05:33:31.480Z,8.40
2023-02-07T05:36:02.774Z,8.60
2023-02-07T05:38:30.714Z,8.70
2023-02-07T05:40:58.884Z,9.00
2023-02-07T05:43:26.830Z,9.30
2023-02-07T05:45:54.746Z,9.40
2023-02-07T05:48:22.691Z,9.70
2023-02-07T05:50:50.590Z,9.90
2023-02-07T05:53:19.952Z,10.00
2023-02-07T05:55:47.827Z,10.10
2023-02-07T05:58:15.718Z,10.30
2023-02-07T06:00:46.799Z,10.00
2023-02-07T06:03:14.739Z,10.00
2023-02-07T06:05:42.669Z,10.20
2023-02-07T06:08:13.111Z,9.60
2023-02-07T06:10:44.685Z,10.10
2023-02-07T06:13:12.989Z,10.20
2023-02-07T06:15:43.778Z,10.40
2023-02-07T06:18:11.695Z,10.40
2023-02-07T06:20:42.261Z,10.50
2023-02-07T06:23:10.245Z,10.60
2023-02-07T06:25:38.418Z,10.30
2023-02-07T06:28:07.901Z,10.70
2023-02-07T06:30:38.915Z,10.90
2023-02-07T06:33:07.179Z,10.90
2023-02-07T06:35:35.073Z,9.70
2023-02-07T06:38:03.028Z,10.20
2023-02-07T06:40:31.065Z,10.40
2023-02-07T06:42:59.078Z,10.50
2023-02-07T06:45:28.397Z,9.20
2023-02-07T06:47:56.349Z,9.90
2023-02-07T06:50:24.385Z,10.10
2023-02-07T06:52:54.720Z,10.00
2023-02-07T06:55:22.685Z,9.80
2023-02-07T06:57:50.648Z,9.80
2023-02-07T07:00:21.835Z,10.30
2023-02-07T07:02:51.209Z,10.30
2023-02-07T07:05:19.170Z,10.00
2023-02-07T07:07:47.378Z,9.00
2023-02-07T07:10:15.704Z,8.30
2023-02-07T07:12:43.719Z,7.60
2023-02-07T07:15:11.729Z,6.50
2023-02-07T07:17:39.743Z,6.30
2023-02-07T07:20:11.081Z,6.20
2023-02-07T07:22:40.202Z,6.50
2023-02-07T07:25:08.569Z,7.50
2023-02-07T07:27:36.582Z,8.50
2023-02-07T07:30:05.339Z,9.10
2023-02-07T07:32:34.564Z,9.40
2023-02-07T07:35:02.969Z,9.30
2023-02-07T07:37:32.922Z,8.80
2023-02-07T07:40:01.029Z,9.40
2023-02-07T07:42:28.964Z,8.80
2023-02-07T07:45:13.312Z,9.10
2023-02-07T07:47:41.773Z,9.70
2023-02-07T07:50:10.199Z,10.40
2023-02-07T07:52:39.656Z,11.00
2023-02-07T07:55:08.540Z,11.20
2023-02-07T07:57:36.668Z,11.70
2023-02-07T08:00:06.364Z,11.70
2023-02-07T08:02:41.226Z,11.30
2023-02-07T08:05:11.933Z,10.70
2023-02-07T08:07:43.663Z,10.90
2023-02-07T08:10:11.609Z,10.80
2023-02-07T08:12:39.598Z,10.80
2023-02-07T08:15:09.641Z,10.70
2023-02-07T08:17:38.065Z,10.40
2023-02-07T08:20:06.954Z,9.70
2023-02-07T08:22:37.707Z,9.70
2023-02-07T08:25:08.335Z,9.70
2023-02-07T08:27:37.297Z,9.40
2023-02-07T08:30:06.128Z,8.90
2023-02-07T08:32:34.049Z,9.40
2023-02-07T08:35:02.027Z,9.90
2023-02-07T08:37:30.009Z,9.20
2023-02-07T08:39:58.370Z,8.90
2023-02-07T08:42:27.806Z,9.20
2023-02-07T08:44:56.802Z,8.20
2023-02-07T08:47:24.723Z,8.10
2023-02-07T08:49:52.871Z,7.70
2023-02-07T08:52:21.037Z,7.50
2023-02-07T08:54:49.950Z,8.60
2023-02-07T08:57:22.959Z,9.20
2023-02-07T08:59:53.774Z,8.60
2023-02-07T09:02:22.275Z,8.20
2023-02-07T09:04:50.225Z,8.20
2023-02-07T09:07:18.568Z,7.80
2023-02-07T09:09:46.588Z,7.50
2023-02-07T09:12:17.736Z,7.40
2023-02-07T09:14:48.323Z,7.80
2023-02-07T09:17:17.901Z,7.50
2023-02-07T09:19:45.852Z,6.80
2023-02-07T09:22:13.812Z,6.10
2023-02-07T09:24:41.732Z,5.80
2023-02-07T09:27:11.694Z,5.80
2023-02-07T09:29:39.678Z,5.40
2023-02-07T09:32:07.694Z,5.10
2023-02-07T09:34:36.992Z,4.90
2023-02-07T09:37:04.954Z,5.10
2023-02-07T09:39:38.187Z,5.50
2023-02-07T09:42:17.316Z,6.60
2023-02-07T09:44:57.124Z,7.30
2023-02-07T09:47:26.979Z,8.30
2023-02-07T09:49:59.948Z,9.20
2023-02-07T09:52:36.599Z,8.80
2023-02-07T09:55:06.398Z,9.80
2023-02-07T09:57:41.650Z,10.00
2023-02-07T10:00:21.762Z,9.80
2023-02-07T10:02:56.273Z,10.90
2023-02-07T10:05:30.718Z,11.60
2023-02-07T10:07:58.750Z,11.50
2023-02-07T10:10:33.933Z,11.20
2023-02-07T10:13:21.271Z,10.40
2023-02-07T10:16:03.493Z,9.90
2023-02-07T10:18:43.517Z,10.00
2023-02-07T10:21:26.217Z,10.40
2023-02-07T10:24:22.579Z,10.90
2023-02-07T10:26:56.986Z,11.00
2023-02-07T10:29:47.863Z,9.60
2023-02-07T10:32:20.229Z,9.90
2023-02-07T10:34:50.080Z,9.60
2023-02-07T10:37:22.552Z,10.10
2023-02-07T10:39:59.186Z,10.00
2023-02-07T10:42:29.725Z,10.10
2023-02-07T10:44:58.085Z,10.20
2023-02-07T10:47:26.408Z,10.20
2023-02-07T10:49:56.514Z,10.70
2023-02-07T10:52:31.456Z,11.30
2023-02-07T10:55:01.323Z,12.10
2023-02-07T10:57:34.054Z,12.60
2023-02-07T11:00:06.302Z,13.40
2023-02-07T11:02:44.723Z,13.10
2023-02-07T11:05:31.350Z,13.50
2023-02-07T11:08:02.432Z,13.20
2023-02-07T11:10:35.006Z,12.10
2023-02-07T11:13:03.965Z,11.20
2023-02-07T11:15:38.486Z,11.60
2023-02-07T11:18:07.625Z,10.90
2023-02-07T11:20:37.693Z,11.40
2023-02-07T11:23:13.088Z,11.40
2023-02-07T11:25:44.306Z,10.40
2023-02-07T11:28:19.781Z,9.60
2023-02-07T11:30:48.500Z,9.90
2023-02-07T11:33:20.363Z,9.90
2023-02-07T11:36:12.905Z,9.30
2023-02-07T11:38:46.726Z,8.40
2023-02-07T11:41:24.516Z,8.10
2023-02-07T11:44:00.596Z,7.80
2023-02-07T11:46:36.191Z,8.30
2023-02-07T11:49:05.863Z,8.30
2023-02-07T11:51:35.274Z,8.50
2023-02-07T11:54:07.175Z,8.90
2023-02-07T11:56:40.373Z,9.20
2023-02-07T11:59:15.295Z,9.80
2023-02-07T12:01:44.878Z,9.80
2023-02-07T12:04:18.220Z,10.10
2023-02-07T12:06:48.922Z,10.90
2023-02-07T12:09:33.193Z,10.40
2023-02-07T12:12:05.060Z,9.90
2023-02-07T12:14:39.421Z,9.60
2023-02-07T12:17:15.323Z,9.50
2023-02-07T12:19:52.266Z,9.00
2023-02-07T12:22:26.102Z,9.70
2023-02-07T12:25:00.771Z,9.40
2023-02-07T12:27:33.051Z,9.50
2023-02-07T12:30:05.768Z,10.00
2023-02-07T12:32:44.969Z,9.90
2023-02-07T12:35:21.044Z,9.90
2023-02-07T12:37:55.884Z,10.20
2023-02-07T12:40:35.954Z,11.00
2023-02-07T12:43:10.685Z,11.10
2023-02-07T12:45:52.332Z,11.10
2023-02-07T12:48:33.560Z,11.40
2023-02-07T12:51:12.701Z,11.60
2023-02-07T12:54:03.023Z,12.40
2023-02-07T12:56:46.499Z,13.50
2023-02-07T12:59:23.439Z,13.70
2023-02-07T13:02:02.352Z,13.50
2023-02-07T13:04:49.253Z,13.00
2023-02-07T13:07:27.575Z,12.80
2023-02-07T13:10:03.041Z,12.50
2023-02-07T13:12:39.863Z,12.20
2023-02-07T13:15:19.891Z,12.40
2023-02-07T13:17:55.303Z,12.70
2023-02-07T13:20:36.948Z,13.90
2023-02-07T13:23:14.420Z,12.80
2023-02-07T13:25:44.882Z,13.00
2023-02-07T13:28:21.926Z,13.60
2023-02-07T13:30:53.672Z,14.30
2023-02-07T13:33:30.786Z,13.30
2023-02-07T13:36:04.199Z,13.50
2023-02-07T13:38:52.639Z,13.60
2023-02-07T13:41:31.276Z,12.60
2023-02-07T13:44:10.562Z,13.20
2023-02-07T13:47:04.717Z,13.10
2023-02-07T13:49:44.273Z,13.40
2023-02-07T13:52:18.145Z,14.10
2023-02-07T13:54:56.984Z,14.50
2023-02-07T13:57:58.206Z,14.50
2023-02-07T14:00:29.150Z,13.20
2023-02-07T14:02:59.960Z,14.10
2023-02-07T14:05:30.893Z,13.40
2023-02-07T14:08:01.921Z,13.10
2023-02-07T14:10:48.053Z,12.50
2023-02-07T14:13:25.473Z,12.70
2023-02-07T14:16:00.661Z,12.80
2023-02-07T14:18:50.818Z,13.00
2023-02-07T14:21:41.039Z,13.50
2023-02-07T14:24:48.999Z,13.60
2023-02-07T14:27:32.528Z,13.50
2023-02-07T14:30:21.239Z,13.30
2023-02-07T14:33:14.504Z,14.20
2023-02-07T14:36:07.017Z,14.90
2023-02-07T14:38:39.654Z,15.40
2023-02-07T14:41:12.592Z,15.70
2023-02-07T14:44:07.176Z,16.10
2023-02-07T14:46:40.205Z,16.20
2023-02-07T14:49:16.833Z,16.30
2023-02-07T14:51:48.783Z,16.40
2023-02-07T14:54:21.145Z,16.40
2023-02-07T14:56:54.592Z,15.90
2023-02-07T14:59:29.855Z,15.60
2023-02-07T15:01:58.036Z,15.20
2023-02-07T15:04:27.543Z,14.60
2023-02-07T15:06:59.744Z,14.90
2023-02-07T15:09:29.246Z,14.90
2023-02-07T15:12:22.265Z,14.50
2023-02-07T15:14:57.818Z,14.50
2023-02-07T15:17:39.354Z,13.50
2023-02-07T15:20:17.564Z,13.30
2023-02-07T15:22:49.854Z,13.10
2023-02-07T15:25:18.446Z,13.40
2023-02-07T15:28:00.917Z,13.60
2023-02-07T15:30:29.920Z,13.40
2023-02-07T15:32:58.180Z,12.70
2023-02-07T15:35:30.597Z,12.30
2023-02-07T15:38:15.887Z,12.40
2023-02-07T15:40:44.208Z,12.60
2023-02-07T15:43:29.601Z,12.40
2023-02-07T15:46:03.459Z,13.20
2023-02-07T15:48:32.244Z,13.40
2023-02-07T15:51:05.328Z,12.90
2023-02-07T15:53:33.806Z,13.30
2023-02-07T15:56:06.818Z,13.10
2023-02-07T15:58:36.773Z,13.20
2023-02-07T16:01:07.571Z,12.70
2023-02-07T16:03:43.326Z,12.90
2023-02-07T16:06:19.338Z,13.10
2023-02-07T16:08:50.015Z,12.50
2023-02-07T16:11:37.757Z,12.50
2023-02-07T16:14:19.245Z,12.40
2023-02-07T16:16:51.924Z,12.10
2023-02-07T16:19:26.492Z,12.30
2023-02-07T16:22:03.200Z,12.30
2023-02-07T16:24:35.982Z,13.10
2023-02-07T16:27:04.858Z,13.90
2023-02-07T16:29:37.191Z,14.00
2023-02-07T16:32:05.798Z,13.70
2023-02-07T16:34:34.022Z,13.10
2023-02-07T16:37:03.606Z,13.40
2023-02-07T16:39:31.897Z,13.10
2023-02-07T16:42:06.703Z,13.80
2023-02-07T16:44:37.266Z,14.20
2023-02-07T16:47:14.496Z,14.40
2023-02-07T16:49:44.850Z,14.30
2023-02-07T16:52:15.916Z,14.40
2023-02-07T16:54:46.874Z,14.90
2023-02-07T16:57:17.672Z,15.10
2023-02-07T16:59:45.843Z,15.30
2023-02-07T17:02:16.150Z,15.50
2023-02-07T17:04:44.408Z,15.20
2023-02-07T17:07:14.432Z,15.40
2023-02-07T17:09:42.985Z,15.30
2023-02-07T17:12:14.379Z,15.50
2023-02-07T17:14:42.552Z,15.70
2023-02-07T17:17:11.704Z,15.80
2023-02-07T17:19:39.867Z,15.90
2023-02-07T17:22:08.047Z,15.90
2023-02-07T17:24:37.610Z,16.00
2023-02-07T17:27:05.902Z,16.10
2023-02-07T17:29:34.091Z,16.10
2023-02-07T17:32:02.420Z,16.10
2023-02-07T17:34:30.577Z,16.20
2023-02-07T17:36:58.742Z,16.30
2023-02-07T17:39:27.214Z,16.30
2023-02-07T17:41:56.999Z,16.20
2023-02-07T17:44:25.417Z,16.30
2023-02-07T17:46:55.903Z,16.30
2023-02-07T17:49:24.098Z,16.40
2023-02-07T17:51:52.953Z,16.30
2023-02-07T17:54:22.109Z,16.20
2023-02-07T17:56:50.391Z,16.10
2023-02-07T17:59:23.962Z,16.10
2023-02-07T18:01:52.615Z,15.70
2023-02-07T18:04:21.819Z,14.60
2023-02-07T18:06:50.062Z,14.80
2023-02-07T18:09:19.858Z,15.20
2023-02-07T18:11:48.175Z,15.10
2023-02-07T18:14:17.745Z,15.30
2023-02-07T18:16:47.553Z,15.20
2023-02-07T18:19:18.208Z,15.10
2023-02-07T18:21:46.437Z,14.60
2023-02-07T18:24:14.641Z,14.70
2023-02-07T18:26:43.132Z,14.60
2023-02-07T18:29:11.301Z,14.80
2023-02-07T18:31:40.172Z,14.50
2023-02-07T18:34:09.779Z,14.30
2023-02-07T18:36:41.123Z,14.50
2023-02-07T18:39:10.421Z,14.30
2023-02-07T18:41:38.767Z,14.50
2023-02-07T18:44:07.185Z,14.70
2023-02-07T18:46:37.273Z,14.50
2023-02-07T18:49:06.900Z,14.70
2023-02-07T18:51:38.396Z,14.90
2023-02-07T18:54:07.016Z,14.90
2023-02-07T18:56:37.184Z,15.20
2023-02-07T18:59:05.968Z,15.30
2023-02-07T19:01:35.216Z,15.00
2023-02-07T19:04:03.668Z,14.80
2023-02-07T19:06:34.506Z,14.90
2023-02-07T19:09:04.152Z,14.80
2023-02-07T19:11:32.375Z,14.60
2023-02-07T19:14:00.654Z,14.70
2023-02-07T19:16:29.372Z,14.60
2023-02-07T19:19:01.822Z,14.70
2023-02-07T19:21:30.233Z,15.00
2023-02-07T19:24:01.245Z,14.90
2023-02-07T19:26:30.793Z,14.80
2023-02-07T19:28:59.521Z,14.70
2023-02-07T19:31:30.035Z,14.80
2023-02-07T19:33:59.575Z,14.40
2023-02-07T19:36:30.178Z,14.30
2023-02-07T19:38:59.256Z,14.70
2023-02-07T19:41:29.297Z,14.90
2023-02-07T19:43:58.850Z,15.00
2023-02-07T19:46:28.300Z,15.10
2023-02-07T19:48:57.158Z,14.70
2023-02-07T19:51:27.883Z,14.90
2023-02-07T19:53:56.753Z,14.80
2023-02-07T19:56:26.927Z,14.90
2023-02-07T19:58:57.960Z,14.90
2023-02-07T20:01:27.382Z,14.80
2023-02-07T20:03:56.551Z,14.90
2023-02-07T20:06:29.216Z,15.00
2023-02-07T20:08:58.371Z,15.10
2023-02-07T20:11:27.018Z,15.10
2023-02-07T20:13:58.459Z,15.10
2023-02-07T20:16:28.038Z,15.00
2023-02-07T20:18:56.886Z,14.90
2023-02-07T20:21:26.613Z,14.80
2023-02-07T20:23:59.303Z,14.60
2023-02-07T20:26:31.438Z,14.40
2023-02-07T20:29:01.507Z,14.30
2023-02-07T20:31:32.248Z,14.10
2023-02-07T20:34:02.125Z,14.10
2023-02-07T20:36:31.604Z,14.30
2023-02-07T20:39:00.948Z,14.40
2023-02-07T20:41:30.195Z,14.40
2023-02-07T20:44:00.612Z,14.50
2023-02-07T20:46:32.400Z,14.50
2023-02-07T20:49:02.453Z,14.50
2023-02-07T20:51:31.181Z,14.30
2023-02-07T20:54:01.918Z,14.50
2023-02-07T20:56:32.099Z,14.50
2023-02-07T20:59:00.979Z,14.50
2023-02-07T21:01:32.415Z,14.60
2023-02-07T21:04:02.375Z,14.50
2023-02-07T21:06:30.854Z,14.40
2023-02-07T21:09:01.453Z,14.20
2023-02-07T21:11:35.004Z,14.30
2023-02-07T21:14:04.060Z,14.30
2023-02-07T21:16:35.785Z,14.30
2023-02-07T21:19:04.078Z,14.10
2023-02-07T21:21:32.816Z,14.00
2023-02-07T21:24:01.055Z,13.90
2023-02-07T21:26:29.744Z,14.00
2023-02-07T21:28:59.583Z,14.10
2023-02-07T21:31:28.889Z,14.20
2023-02-07T21:33:58.654Z,14.10
2023-02-07T21:36:31.136Z,13.80
2023-02-07T21:39:02.839Z,13.80
2023-02-07T21:41:31.531Z,13.80
2023-02-07T21:44:00.616Z,14.00
2023-02-07T21:46:31.409Z,13.90
2023-02-07T21:49:03.238Z,13.90
2023-02-07T21:51:33.048Z,14.20
2023-02-07T21:54:04.228Z,13.90
2023-02-07T21:56:36.524Z,14.10
2023-02-07T21:59:06.763Z,14.10
2023-02-07T22:01:36.486Z,14.20
2023-02-07T22:04:11.427Z,14.20
2023-02-07T22:06:42.227Z,14.10
2023-02-07T22:09:15.067Z,13.70
2023-02-07T22:11:43.740Z,13.40
2023-02-07T22:14:12.741Z,13.30
2023-02-07T22:16:40.930Z,13.50
2023-02-07T22:19:14.468Z,13.80
2023-02-07T22:21:42.676Z,14.00
2023-02-07T22:24:14.379Z,13.70
2023-02-07T22:26:42.864Z,13.60
2023-02-07T22:29:11.743Z,13.50
2023-02-07T22:31:41.366Z,13.60
2023-02-07T22:34:18.325Z,13.90
2023-02-07T22:36:47.154Z,13.70
2023-02-07T22:39:17.511Z,13.80
2023-02-07T22:41:46.275Z,14.10
2023-02-07T22:44:14.511Z,13.80
2023-02-07T22:46:43.380Z,14.00
2023-02-07T22:49:15.341Z,14.10
2023-02-07T22:51:43.543Z,14.20
2023-02-07T22:54:16.734Z,13.70
2023-02-07T22:56:46.030Z,13.60
2023-02-07T22:59:17.660Z,13.60
2023-02-07T23:01:46.094Z,13.80
2023-02-07T23:04:17.565Z,14.00
2023-02-07T23:06:46.191Z,14.20
2023-02-07T23:09:15.141Z,14.20
2023-02-07T23:11:43.378Z,14.00
2023-02-07T23:14:11.610Z,14.30
2023-02-07T23:16:40.051Z,14.40
2023-02-07T23:19:09.872Z,14.10
2023-02-07T23:21:41.207Z,14.00
2023-02-07T23:24:10.575Z,13.90
2023-02-07T23:26:38.830Z,13.60
2023-02-07T23:29:07.078Z,13.70
2023-02-07T23:31:38.226Z,13.50
2023-02-07T23:34:06.494Z,13.40
2023-02-07T23:36:34.664Z,13.60
2023-02-07T23:39:05.476Z,13.30
2023-02-07T23:41:33.678Z,13.50
2023-02-07T23:44:02.589Z,13.60
2023-02-07T23:46:34.155Z,13.50
2023-02-07T23:49:02.446Z,13.90
2023-02-07T23:51:30.635Z,13.70
2023-02-07T23:53:58.827Z,13.10
2023-02-07T23:56:28.575Z,12.80
2023-02-07T23:58:56.880Z,13.00
